Time;durP1;ratioP1;P1;durP2;ratioP2;P2;SDS_P1;SDS_P2;PMS_P1;PMS_P2;Temp;Humidity;BMP_temperature;BMP_pressure;BME280_temperature;BME280_humidity;BME280_pressure;Samples;Min_cycle;Max_cycle;Signal;HPM_P1;HPM_P2
2023/10/10 00:00:23;;;;;;;10.13;2.80;;;24.20;99.90;;;;;;5092697;28;20179;-67
2023/10/10 00:02:21;;;;;;;11.53;2.80;;;23.80;99.90;;;;;;5091689;28;20263;-69
2023/10/10 00:04:49;;;;;;;7.67;2.97;;;23.90;99.90;;;;;;5092198;28;20683;-69
2023/10/10 00:07:18;;;;;;;10.23;2.43;;;24.50;99.90;;;;;;5090871;28;20178;-69
2023/10/10 00:09:46;;;;;;;10.97;3.10;;;25.40;99.90;;;;;;5092991;28;20646;-67
2023/10/10 00:12:18;;;;;;;8.23;2.43;;;25.70;99.90;;;;;;5091588;28;20202;-67
2023/10/10 00:14:50;;;;;;;7.40;2.20;;;25.70;99.90;;;;;;5091869;28;20187;-68
2023/10/10 00:17:20;;;;;;;8.73;2.60;;;25.70;99.90;;;;;;5091707;28;20242;-69
2023/10/10 00:19:58;;;;;;;8.20;2.60;;;26.60;99.90;;;;;;5091257;28;20271;-67
2023/10/10 00:22:34;;;;;;;7.17;2.47;;;26.20;99.90;;;;;;5091651;28;20259;-67
2023/10/10 00:25:04;;;;;;;5.97;2.20;;;26.10;99.90;;;;;;5090219;28;20325;-67
2023/10/10 00:27:33;;;;;;;8.47;2.40;;;26.20;99.90;;;;;;5090577;28;20190;-68
2023/10/10 00:30:13;;;;;;;8.47;2.73;;;26.50;99.90;;;;;;5091770;28;20229;-67
2023/10/10 00:32:45;;;;;;;4.27;2.03;;;26.90;99.90;;;;;;5091775;28;20175;-68
2023/10/10 00:35:12;;;;;;;12.63;3.03;;;27.20;99.90;;;;;;5091078;28;20280;-68
2023/10/10 00:37:39;;;;;;;20.30;3.20;;;27.90;99.90;;;;;;5091355;28;20209;-68
2023/10/10 00:40:25;;;;;;;8.40;2.60;;;27.90;99.90;;;;;;5091485;28;20182;-69
2023/10/10 00:42:52;;;;;;;9.57;2.60;;;28.20;99.90;;;;;;5094789;28;20179;-67
2023/10/10 00:45:21;;;;;;;8.93;2.53;;;28.20;99.90;;;;;;5094935;28;20211;-68
2023/10/10 00:47:52;;;;;;;5.17;2.10;;;28.00;99.90;;;;;;5095704;28;20178;-67
2023/10/10 00:50:25;;;;;;;6.70;2.50;;;28.00;99.90;;;;;;5095141;28;20711;-66
2023/10/10 00:52:56;;;;;;;6.10;2.47;;;28.10;99.90;;;;;;5095329;28;20174;-68
2023/10/10 00:55:25;;;;;;;9.87;2.43;;;26.80;99.90;;;;;;5095734;28;20189;-68
2023/10/10 00:57:55;;;;;;;9.33;2.30;;;25.70;99.90;;;;;;5094892;28;20174;-68
2023/10/10 01:00:29;;;;;;;7.90;2.40;;;25.30;99.90;;;;;;5093936;28;20222;-67
2023/10/10 01:03:19;;;;;;;9.03;2.50;;;25.20;99.90;;;;;;5095066;28;20176;-68
2023/10/10 01:05:54;;;;;;;6.47;2.30;;;26.30;99.90;;;;;;5094566;28;20218;-68
2023/10/10 01:08:31;;;;;;;7.47;1.97;;;27.40;99.90;;;;;;5095394;28;20186;-68
2023/10/10 01:11:03;;;;;;;6.80;2.43;;;27.10;99.90;;;;;;5096766;28;20589;-70
2023/10/10 01:13:30;;;;;;;9.00;2.47;;;26.70;99.90;;;;;;5096597;28;20640;-68
2023/10/10 01:16:00;;;;;;;10.73;2.57;;;27.20;99.90;;;;;;5096761;28;20643;-68
2023/10/10 01:18:27;;;;;;;8.30;2.30;;;27.70;99.90;;;;;;5095206;28;20183;-67
2023/10/10 01:20:56;;;;;;;9.77;2.33;;;28.40;99.90;;;;;;5096496;28;20172;-68
2023/10/10 01:23:27;;;;;;;7.93;2.27;;;28.80;99.90;;;;;;5096458;28;20180;-68
2023/10/10 01:26:05;;;;;;;4.60;1.93;;;29.10;99.90;;;;;;5096144;28;20242;-68
2023/10/10 01:28:35;;;;;;;9.37;2.17;;;27.90;99.90;;;;;;5095277;28;20189;-66
2023/10/10 01:31:07;;;;;;;5.27;2.37;;;26.80;99.90;;;;;;5096345;28;20183;-67
2023/10/10 01:36:11;;;;;;;7.87;2.40;;;25.50;99.90;;;;;;5095823;28;20217;-70
2023/10/10 01:38:59;;;;;;;8.33;2.60;;;25.00;99.90;;;;;;5095462;28;20183;-68
2023/10/10 01:41:38;;;;;;;6.30;2.20;;;24.80;99.90;;;;;;5075890;28;20188;-69
2023/10/10 01:44:18;;;;;;;7.83;2.10;;;24.20;99.90;;;;;;5075785;28;20612;-69
2023/10/10 01:46:46;;;;;;;8.83;2.27;;;24.10;99.90;;;;;;5075515;28;20256;-68
2023/10/10 01:49:14;;;;;;;9.73;2.77;;;24.50;99.90;;;;;;5074457;28;20172;-68
2023/10/10 01:51:45;;;;;;;12.73;2.80;;;25.60;99.90;;;;;;5075623;28;20282;-68
2023/10/10 01:54:15;;;;;;;7.97;2.67;;;26.50;99.90;;;;;;5075096;28;20200;-69
2023/10/10 01:56:44;;;;;;;8.03;2.13;;;27.30;99.90;;;;;;5075519;28;20672;-69
2023/10/10 01:59:19;;;;;;;11.10;2.13;;;27.70;99.90;;;;;;5075384;28;20264;-69
2023/10/10 02:01:47;;;;;;;7.80;2.60;;;27.70;99.90;;;;;;5092959;28;20179;-69
2023/10/10 02:04:15;;;;;;;5.87;1.67;;;28.30;99.90;;;;;;5095764;28;20191;-69
2023/10/10 02:06:45;;;;;;;6.30;2.27;;;27.80;99.90;;;;;;5095969;28;20182;-69
2023/10/10 02:09:27;;;;;;;9.43;2.03;;;27.90;99.90;;;;;;5095278;28;20534;-68
2023/10/10 02:12:08;;;;;;;7.77;2.47;;;27.50;99.90;;;;;;5071445;28;20190;-69
2023/10/10 02:14:36;;;;;;;3.90;1.73;;;27.60;99.90;;;;;;5093966;28;20180;-69
2023/10/10 02:17:19;;;;;;;5.30;1.80;;;27.70;99.90;;;;;;5094186;28;20588;-71
2023/10/10 02:19:57;;;;;;;5.40;1.70;;;28.00;99.90;;;;;;5082859;28;20275;-69
2023/10/10 02:27:59;;;;;;;12.07;2.80;;;26.90;99.90;;;;;;5073403;28;20176;-68
2023/10/10 02:30:37;;;;;;;8.17;2.07;;;26.10;99.90;;;;;;5089757;28;20191;-69
2023/10/10 02:33:16;;;;;;;6.43;1.87;;;25.40;99.90;;;;;;5093320;28;20175;-68
2023/10/10 02:41:59;;;;;;;11.37;2.03;;;25.90;99.90;;;;;;5090803;28;20265;-69
2023/10/10 02:44:52;;;;;;;8.57;2.07;;;27.00;99.90;;;;;;5093361;28;20636;-68
2023/10/10 02:47:30;;;;;;;6.60;2.07;;;27.40;99.90;;;;;;5092723;28;20199;-69
2023/10/10 02:50:09;;;;;;;8.13;2.30;;;27.70;99.90;;;;;;5092025;28;20210;-69
2023/10/10 02:52:45;;;;;;;7.90;2.50;;;27.90;99.90;;;;;;5093096;28;20260;-68
2023/10/10 02:55:14;;;;;;;7.17;2.00;;;27.90;99.90;;;;;;5091343;28;20269;-68
2023/10/10 02:57:42;;;;;;;5.23;2.00;;;28.20;99.90;;;;;;5092413;28;20640;-68
2023/10/10 03:00:27;;;;;;;5.33;1.90;;;28.40;99.90;;;;;;5092112;28;20211;-69
2023/10/10 03:03:03;;;;;;;5.43;2.30;;;28.70;99.90;;;;;;5092189;28;20228;-69
2023/10/10 03:05:39;;;;;;;5.93;2.20;;;27.80;99.90;;;;;;5090395;28;20624;-68
2023/10/10 03:08:18;;;;;;;5.23;2.13;;;27.00;99.90;;;;;;5092932;28;20167;-71
2023/10/10 03:10:55;;;;;;;6.23;2.10;;;26.00;99.90;;;;;;5092335;28;20693;-68
2023/10/10 03:33:16;;;;;;;9.17;2.17;;;27.60;99.90;;;;;;5090598;28;20199;-69
2023/10/10 03:35:59;;;;;;;6.27;2.00;;;27.60;99.90;;;;;;5092362;28;20183;-70
2023/10/10 03:38:45;;;;;;;5.37;2.00;;;27.20;99.90;;;;;;5092325;28;20183;-69
2023/10/10 05:24:35;;;;;;;2.80;1.60;;;24.10;99.90;;;;;;5113040;28;20696;-70
2023/10/10 05:27:03;;;;;;;7.07;1.87;;;23.90;99.90;;;;;;5112945;28;20187;-69
2023/10/10 05:33:03;;;;;;;4.87;2.03;;;23.70;99.90;;;;;;5116419;28;20208;-70
2023/10/10 05:35:38;;;;;;;5.47;1.60;;;23.70;99.90;;;;;;5115286;28;20206;-69
2023/10/10 05:38:09;;;;;;;5.03;2.00;;;23.90;99.90;;;;;;5116894;28;20518;-70
2023/10/10 05:40:40;;;;;;;6.50;1.77;;;23.60;99.90;;;;;;5115694;28;20651;-70
2023/10/10 05:43:14;;;;;;;5.30;1.83;;;23.70;99.90;;;;;;5116763;28;20639;-69
2023/10/10 05:45:46;;;;;;;7.23;1.90;;;23.70;99.90;;;;;;5116659;27;20217;-69
2023/10/10 05:48:14;;;;;;;6.47;2.57;;;23.70;99.90;;;;;;5116772;28;20167;-69
2023/10/10 05:50:42;;;;;;;6.90;1.60;;;23.70;99.90;;;;;;5115386;28;20206;-70
2023/10/10 05:53:11;;;;;;;6.17;2.27;;;23.70;99.90;;;;;;5115000;28;20521;-69
2023/10/10 05:55:38;;;;;;;4.63;1.83;;;23.50;99.90;;;;;;5115204;28;20179;-70
2023/10/10 05:58:08;;;;;;;6.17;2.00;;;23.20;99.90;;;;;;5113863;28;20179;-69
2023/10/10 06:00:41;;;;;;;8.97;2.17;;;23.10;99.90;;;;;;5116474;28;20194;-71
2023/10/10 06:03:10;;;;;;;8.13;2.17;;;23.00;99.90;;;;;;5116125;28;20189;-70
2023/10/10 06:05:49;;;;;;;5.97;1.70;;;22.90;99.90;;;;;;5116142;28;20263;-68
2023/10/10 06:08:21;;;;;;;7.13;1.67;;;23.10;99.90;;;;;;5116031;28;20178;-69
2023/10/10 06:10:48;;;;;;;6.90;1.90;;;23.10;99.90;;;;;;5115972;28;20175;-68
2023/10/10 06:13:19;;;;;;;2.97;1.43;;;23.00;99.90;;;;;;5115811;28;20294;-69
2023/10/10 06:15:50;;;;;;;5.00;1.67;;;22.90;99.90;;;;;;5115921;28;20179;-69
2023/10/10 06:18:18;;;;;;;6.97;2.13;;;23.00;99.90;;;;;;5115979;28;20648;-70
2023/10/10 06:20:47;;;;;;;7.63;1.63;;;23.20;99.90;;;;;;5116153;28;20178;-69
2023/10/10 06:23:15;;;;;;;5.83;2.30;;;23.30;99.90;;;;;;5116008;28;20167;-69
2023/10/10 06:25:45;;;;;;;6.27;1.70;;;23.20;99.90;;;;;;5114567;28;20262;-69
2023/10/10 06:28:47;;;;;;;5.07;1.87;;;22.90;99.90;;;;;;5115804;28;20175;-69
2023/10/10 06:31:10;;;;;;;7.40;2.67;;;22.80;99.90;;;;;;5112611;28;20528;-69
2023/10/10 06:33:40;;;;;;;9.07;2.50;;;22.60;99.90;;;;;;5115503;28;20666;-69
2023/10/10 06:41:51;;;;;;;8.13;2.47;;;22.00;99.90;;;;;;5106041;28;20236;-69
2023/10/10 06:44:40;;;;;;;5.63;1.83;;;21.60;99.90;;;;;;5115843;28;20177;-70
2023/10/10 06:47:11;;;;;;;7.03;1.90;;;21.50;99.90;;;;;;5115009;28;20195;-69
2023/10/10 06:49:47;;;;;;;11.70;2.93;;;21.30;99.90;;;;;;5114333;28;20178;-68
2023/10/10 06:52:23;;;;;;;4.63;2.00;;;21.10;99.90;;;;;;5114204;28;20208;-69
2023/10/10 06:54:54;;;;;;;7.00;2.03;;;21.10;99.90;;;;;;5115454;28;20700;-69
2023/10/10 06:57:38;;;;;;;5.20;2.10;;;21.10;99.90;;;;;;5115273;28;20270;-69
2023/10/10 07:00:28;;;;;;;8.60;2.17;;;21.00;99.90;;;;;;5114326;28;20637;-69
2023/10/10 07:02:59;;;;;;;3.77;2.17;;;21.00;99.90;;;;;;5115303;28;20625;-68
2023/10/10 07:05:33;;;;;;;7.63;2.07;;;20.90;99.90;;;;;;5115231;28;20547;-72
2023/10/10 07:08:49;;;;;;;7.77;2.50;;;20.90;99.90;;;;;;5114956;28;20178;-69
2023/10/10 07:10:49;;;;;;;9.33;1.97;;;20.80;99.90;;;;;;5110991;28;20338;-70
2023/10/10 07:13:19;;;;;;;5.93;2.00;;;20.80;99.90;;;;;;5114837;28;20531;-69
2023/10/10 07:15:56;;;;;;;6.47;2.13;;;20.50;99.90;;;;;;5113668;28;20199;-70
2023/10/10 07:18:24;;;;;;;7.47;2.40;;;20.40;99.90;;;;;;5115317;28;20174;-70
2023/10/10 07:21:30;;;;;;;9.97;2.63;;;20.30;99.90;;;;;;5115268;28;20496;-68
2023/10/10 07:24:13;;;;;;;7.63;2.33;;;20.10;99.90;;;;;;5114512;28;20231;-68
2023/10/10 07:26:45;;;;;;;7.70;2.40;;;20.10;99.90;;;;;;5113267;28;20581;-68
2023/10/10 07:29:27;;;;;;;6.97;2.53;;;20.00;99.90;;;;;;5114588;28;20272;-68
2023/10/10 07:32:31;;;;;;;5.90;1.97;;;20.00;99.90;;;;;;5083320;28;20178;-68
2023/10/10 07:34:51;;;;;;;6.20;2.13;;;20.00;99.90;;;;;;5113355;28;20256;-69
2023/10/10 07:37:27;;;;;;;5.27;2.50;;;20.00;99.90;;;;;;5114392;28;20181;-69
2023/10/10 07:39:56;;;;;;;5.50;2.10;;;19.90;99.90;;;;;;5114475;28;20275;-69
2023/10/10 07:42:27;;;;;;;6.83;2.07;;;19.90;99.90;;;;;;5114295;28;20188;-68
2023/10/10 07:44:56;;;;;;;9.17;2.20;;;19.90;99.90;;;;;;5114061;27;20587;-69
2023/10/10 07:50:18;;;;;;;5.20;2.07;;;19.70;99.90;;;;;;5103135;28;20222;-69
2023/10/10 07:52:45;;;;;;;9.23;3.00;;;19.70;99.90;;;;;;5114052;28;20171;-69
2023/10/10 07:55:15;;;;;;;7.77;2.43;;;19.60;99.90;;;;;;5114255;28;20180;-68
2023/10/10 07:57:59;;;;;;;7.93;2.13;;;19.60;99.90;;;;;;5114124;28;20231;-69
2023/10/10 08:00:40;;;;;;;5.53;2.23;;;19.50;99.90;;;;;;5114402;28;20204;-69
2023/10/10 08:03:18;;;;;;;8.13;2.53;;;19.50;99.90;;;;;;5113267;28;20264;-69
2023/10/10 08:05:53;;;;;;;6.27;2.30;;;19.50;99.90;;;;;;5112901;28;20216;-68
2023/10/10 08:08:25;;;;;;;8.03;2.50;;;19.50;99.90;;;;;;5114347;28;20661;-69
2023/10/10 08:11:05;;;;;;;3.50;1.87;;;19.60;99.90;;;;;;5113872;28;20630;-69
2023/10/10 08:13:39;;;;;;;8.83;2.33;;;19.60;99.90;;;;;;5114238;28;20178;-69
2023/10/10 08:16:07;;;;;;;8.27;2.40;;;19.50;99.90;;;;;;5113681;28;20700;-69
2023/10/10 08:21:22;;;;;;;7.23;2.10;;;19.50;99.90;;;;;;5113844;28;20257;-69
2023/10/10 08:23:58;;;;;;;9.17;2.40;;;19.50;99.90;;;;;;5113930;28;20659;-71
2023/10/10 08:26:27;;;;;;;8.20;2.60;;;19.50;99.90;;;;;;5112642;28;20714;-70
2023/10/10 08:28:58;;;;;;;7.07;2.27;;;19.40;99.90;;;;;;5113818;28;20190;-70
2023/10/10 08:31:25;;;;;;;5.53;2.27;;;19.40;99.90;;;;;;5113040;28;20190;-69
2023/10/10 08:33:55;;;;;;;8.60;2.00;;;19.30;99.90;;;;;;5095255;28;20179;-69
2023/10/10 08:36:23;;;;;;;6.27;2.37;;;19.30;99.90;;;;;;5096392;28;20198;-70
2023/10/10 08:39:10;;;;;;;12.03;2.37;;;19.40;99.90;;;;;;5112645;28;20200;-69
2023/10/10 08:41:41;;;;;;;9.77;2.33;;;19.30;99.90;;;;;;5113719;28;20181;-70
2023/10/10 08:44:19;;;;;;;6.53;2.40;;;19.30;99.90;;;;;;5113554;28;20186;-68
2023/10/10 08:46:47;;;;;;;11.57;2.73;;;19.30;99.90;;;;;;5113540;28;20213;-69
2023/10/10 08:49:16;;;;;;;12.07;2.57;;;19.30;99.90;;;;;;5113519;28;20182;-69
2023/10/10 08:51:45;;;;;;;6.77;2.37;;;19.30;99.90;;;;;;5113501;28;20251;-69
2023/10/10 08:54:15;;;;;;;13.87;3.17;;;19.30;99.90;;;;;;5113277;28;20282;-69
2023/10/10 08:56:44;;;;;;;8.07;2.77;;;19.30;99.90;;;;;;5113168;28;20217;-69
2023/10/10 08:59:16;;;;;;;11.53;3.57;;;19.30;99.90;;;;;;5113575;28;20261;-69
2023/10/10 09:01:47;;;;;;;10.93;3.07;;;19.30;99.90;;;;;;5114343;28;20555;-69
2023/10/10 09:04:18;;;;;;;5.47;2.70;;;19.30;99.90;;;;;;5117467;28;20235;-68
2023/10/10 09:07:08;;;;;;;11.50;3.77;;;19.30;99.90;;;;;;5117286;28;20240;-69
2023/10/10 09:09:43;;;;;;;10.60;2.93;;;19.30;99.90;;;;;;5117452;28;20178;-70
2023/10/10 09:12:14;;;;;;;11.87;3.43;;;19.20;99.90;;;;;;5117313;28;20209;-70
2023/10/10 09:14:50;;;;;;;8.87;2.90;;;19.20;99.90;;;;;;5117312;28;20185;-69
2023/10/10 09:17:40;;;;;;;9.90;2.60;;;19.10;99.90;;;;;;5117263;28;20210;-69
2023/10/10 09:20:23;;;;;;;7.10;2.73;;;19.00;99.90;;;;;;5117326;27;20182;-68
2023/10/10 09:22:56;;;;;;;11.27;3.13;;;19.00;99.90;;;;;;5116682;28;20332;-69
2023/10/10 09:25:42;;;;;;;9.77;2.57;;;19.00;99.90;;;;;;5116718;28;20769;-69
2023/10/10 09:28:15;;;;;;;9.70;3.03;;;19.00;99.90;;;;;;5116710;28;20184;-67
2023/10/10 09:31:26;;;;;;;11.07;2.90;;;19.10;99.90;;;;;;5117139;28;20181;-69
2023/10/10 09:33:45;;;;;;;6.40;2.47;;;19.10;99.90;;;;;;5115658;28;20199;-68
2023/10/10 09:36:26;;;;;;;17.27;3.30;;;19.00;99.90;;;;;;5115782;28;20171;-70
2023/10/10 09:50:45;;;;;;;9.17;2.97;;;18.90;99.90;;;;;;5102668;28;20204;-68
2023/10/10 09:53:23;;;;;;;7.33;3.20;;;18.90;99.90;;;;;;5116462;28;20186;-68
2023/10/10 09:55:53;;;;;;;10.87;3.10;;;18.90;99.90;;;;;;5116458;28;20191;-70
2023/10/10 09:58:25;;;;;;;6.57;3.20;;;18.90;99.90;;;;;;5098652;28;20276;-69
2023/10/10 10:01:04;;;;;;;6.43;2.80;;;18.80;99.90;;;;;;5116421;28;20174;-69
2023/10/10 10:03:49;;;;;;;12.90;3.40;;;18.90;99.90;;;;;;5116400;27;20182;-68
2023/10/10 10:06:51;;;;;;;10.07;2.80;;;18.80;99.90;;;;;;5112412;28;20214;-70
2023/10/10 10:09:38;;;;;;;13.60;3.30;;;18.80;99.90;;;;;;5093291;28;20179;-69
2023/10/10 10:12:41;;;;;;;8.10;2.93;;;18.80;99.90;;;;;;5095222;28;20187;-69
2023/10/10 10:15:20;;;;;;;12.93;3.77;;;18.80;99.90;;;;;;5093989;28;20720;-69
2023/10/10 10:18:18;;;;;;;11.00;3.13;;;18.80;99.90;;;;;;5072901;28;20525;-72
2023/10/10 10:21:12;;;;;;;8.17;3.03;;;18.80;99.90;;;;;;5092217;28;20179;-71
2023/10/10 10:23:55;;;;;;;6.67;2.87;;;18.80;99.90;;;;;;5092661;28;20191;-69
2023/10/10 10:26:42;;;;;;;13.37;3.50;;;18.80;99.90;;;;;;5093145;28;20588;-69
2023/10/10 10:29:15;;;;;;;10.57;3.27;;;18.70;99.90;;;;;;5093513;28;20202;-70
2023/10/10 10:31:51;;;;;;;7.73;3.10;;;18.80;99.90;;;;;;5092963;28;20236;-71
2023/10/10 10:34:35;;;;;;;6.63;2.90;;;18.80;99.90;;;;;;5092314;28;20668;-71
2023/10/10 10:37:20;;;;;;;7.90;3.07;;;18.80;99.90;;;;;;5093560;28;20265;-68
2023/10/10 10:42:38;;;;;;;11.53;3.60;;;18.80;99.90;;;;;;5092340;28;20202;-69
2023/10/10 10:45:26;;;;;;;8.00;3.43;;;18.80;99.90;;;;;;5091700;28;20203;-68
2023/10/10 10:48:06;;;;;;;6.57;2.80;;;18.80;99.90;;;;;;5092141;28;20206;-72
2023/10/10 10:50:56;;;;;;;8.73;2.43;;;18.80;99.90;;;;;;5093112;28;20733;-72
2023/10/10 10:53:35;;;;;;;11.87;3.67;;;18.80;99.90;;;;;;5078067;28;20213;-71
2023/10/10 11:01:28;;;;;;;6.63;3.10;;;18.70;99.90;;;;;;5092650;28;20180;-71
2023/10/10 11:03:58;;;;;;;9.13;2.80;;;18.80;99.90;;;;;;5088485;28;20188;-71
2023/10/10 11:06:29;;;;;;;8.87;3.20;;;18.80;99.90;;;;;;5092118;28;20302;-72
2023/10/10 11:09:23;;;;;;;8.83;2.77;;;18.90;99.90;;;;;;5092219;28;20184;-71
2023/10/10 11:11:47;;;;;;;9.70;3.20;;;18.80;99.90;;;;;;5091373;28;20290;-72
2023/10/10 11:16:56;;;;;;;9.30;3.00;;;18.80;99.90;;;;;;5092213;28;20619;-69
2023/10/10 11:22:02;;;;;;;10.30;3.40;;;18.70;99.90;;;;;;5092562;28;20530;-71
2023/10/10 11:24:31;;;;;;;7.67;3.37;;;18.60;99.90;;;;;;5091648;28;20223;-71
2023/10/10 11:29:44;;;;;;;10.67;3.50;;;18.70;99.90;;;;;;5092154;28;20185;-71
2023/10/10 11:32:24;;;;;;;7.53;2.80;;;18.60;99.90;;;;;;5091947;28;20192;-71
2023/10/10 11:37:59;;;;;;;10.00;3.07;;;18.80;99.90;;;;;;5092122;28;20186;-71
2023/10/10 11:40:31;;;;;;;9.80;3.23;;;18.70;99.90;;;;;;5092133;28;20183;-70
2023/10/10 11:43:09;;;;;;;9.80;3.97;;;18.70;99.90;;;;;;5089563;28;20199;-71
2023/10/10 11:45:53;;;;;;;11.80;3.23;;;18.70;99.90;;;;;;5091873;28;20731;-71
2023/10/10 11:48:26;;;;;;;9.33;3.03;;;18.70;99.90;;;;;;5076527;28;20183;-71
2023/10/10 11:50:56;;;;;;;7.20;3.10;;;18.70;99.90;;;;;;5092057;28;20225;-71
2023/10/10 11:53:29;;;;;;;6.70;2.90;;;18.70;99.90;;;;;;5076820;28;20190;-70
2023/10/10 11:56:07;;;;;;;9.23;2.87;;;18.80;99.90;;;;;;5093638;28;20633;-71
2023/10/10 11:58:39;;;;;;;9.00;3.27;;;18.80;99.90;;;;;;5093529;28;20608;-70
2023/10/10 12:01:07;;;;;;;9.10;3.40;;;18.80;99.90;;;;;;5093613;28;20184;-71
2023/10/10 12:06:14;;;;;;;4.80;2.80;;;18.70;99.90;;;;;;5093519;28;20203;-72
2023/10/10 12:08:48;;;;;;;6.90;2.83;;;18.70;99.90;;;;;;5093478;28;20183;-72
2023/10/10 12:11:20;;;;;;;9.03;2.77;;;18.70;99.90;;;;;;5093416;28;20191;-72
2023/10/10 12:13:51;;;;;;;7.43;3.30;;;18.70;99.90;;;;;;5091618;28;20180;-68
2023/10/10 12:16:27;;;;;;;7.37;3.50;;;18.70;99.90;;;;;;5093489;28;20671;-69
2023/10/10 12:18:59;;;;;;;7.37;3.23;;;18.70;99.90;;;;;;5093337;28;20530;-69
2023/10/10 12:21:26;;;;;;;5.07;2.77;;;18.70;99.90;;;;;;5093572;28;20672;-68
2023/10/10 12:23:57;;;;;;;6.63;3.27;;;18.70;99.90;;;;;;5093104;28;20193;-68
2023/10/10 12:26:25;;;;;;;8.87;3.07;;;18.70;99.90;;;;;;5093265;28;20216;-70
2023/10/10 12:28:56;;;;;;;8.37;3.03;;;18.70;99.90;;;;;;5092957;28;20188;-70
2023/10/10 12:31:23;;;;;;;9.03;3.17;;;18.70;99.90;;;;;;5093160;28;20257;-70
2023/10/10 12:33:55;;;;;;;6.43;2.60;;;18.70;99.90;;;;;;5093331;28;20335;-70
2023/10/10 12:36:28;;;;;;;7.13;3.17;;;18.80;99.90;;;;;;5090909;28;20270;-68
2023/10/10 12:38:58;;;;;;;5.80;2.33;;;18.80;99.90;;;;;;5093004;28;20175;-69
2023/10/10 12:41:35;;;;;;;7.70;2.97;;;18.70;99.90;;;;;;5092591;28;20237;-71
2023/10/10 12:44:06;;;;;;;7.10;3.73;;;18.70;99.90;;;;;;5075793;28;20191;-69
2023/10/10 12:46:40;;;;;;;7.37;3.13;;;18.60;99.90;;;;;;5092654;28;20221;-68
2023/10/10 12:49:11;;;;;;;8.83;3.20;;;18.60;99.90;;;;;;5075113;28;20187;-71
2023/10/10 12:51:45;;;;;;;7.13;3.00;;;18.50;99.90;;;;;;5091710;28;20277;-72
2023/10/10 12:54:17;;;;;;;7.90;3.30;;;18.50;99.90;;;;;;5058892;28;20331;-70
2023/10/10 12:56:59;;;;;;;8.73;3.27;;;18.50;99.90;;;;;;5092261;28;20179;-70
2023/10/10 12:59:28;;;;;;;6.67;3.10;;;18.60;99.90;;;;;;5092793;28;20183;-71
2023/10/10 13:02:00;;;;;;;6.13;2.77;;;18.50;99.90;;;;;;5093042;28;20187;-71
2023/10/10 13:04:36;;;;;;;10.17;3.03;;;18.60;99.90;;;;;;5091789;28;20184;-70
2023/10/10 13:07:05;;;;;;;12.20;3.53;;;18.50;99.90;;;;;;5091460;28;20182;-70
2023/10/10 13:09:42;;;;;;;6.53;3.30;;;18.50;99.90;;;;;;5091526;28;20556;-73
2023/10/10 13:12:32;;;;;;;9.27;3.10;;;18.50;99.90;;;;;;5091709;28;20261;-71
2023/10/10 13:15:18;;;;;;;6.40;3.00;;;18.50;99.90;;;;;;5091742;28;20200;-71
2023/10/10 13:18:11;;;;;;;10.97;2.60;;;18.50;99.90;;;;;;5091469;28;20190;-72
2023/10/10 13:20:39;;;;;;;6.13;2.87;;;18.60;99.90;;;;;;5058037;28;20543;-72
2023/10/10 13:23:12;;;;;;;9.60;3.20;;;18.60;99.90;;;;;;5071206;28;20184;-71
2023/10/10 13:25:39;;;;;;;7.03;2.73;;;18.60;99.90;;;;;;5071237;28;20243;-71
2023/10/10 13:28:09;;;;;;;10.30;3.10;;;18.60;99.90;;;;;;5071346;28;20187;-71
2023/10/10 13:31:03;;;;;;;7.57;2.53;;;18.60;99.90;;;;;;5078120;28;20674;-72
2023/10/10 13:33:33;;;;;;;5.63;3.00;;;18.60;99.90;;;;;;5092816;28;20179;-71
2023/10/10 13:36:00;;;;;;;5.90;2.87;;;18.60;99.90;;;;;;5092766;28;20271;-71
2023/10/10 13:38:32;;;;;;;8.37;3.33;;;18.50;99.90;;;;;;5092726;28;20620;-71
2023/10/10 13:41:08;;;;;;;10.23;3.00;;;18.50;99.90;;;;;;5091582;28;20198;-71
2023/10/10 13:43:36;;;;;;;10.47;3.40;;;18.50;99.90;;;;;;5075257;28;20296;-71
2023/10/10 13:46:07;;;;;;;10.43;3.30;;;18.50;99.90;;;;;;5092508;28;20359;-71
2023/10/10 13:48:39;;;;;;;6.03;3.10;;;18.50;99.90;;;;;;5091619;28;20198;-71
2023/10/10 13:51:09;;;;;;;9.03;2.90;;;18.40;99.90;;;;;;5095908;28;20195;-72
2023/10/10 13:53:39;;;;;;;4.83;2.67;;;18.40;99.90;;;;;;5094857;28;20186;-71
2023/10/10 13:56:08;;;;;;;9.50;3.10;;;18.40;99.90;;;;;;5094759;28;20205;-71
2023/10/10 13:58:46;;;;;;;9.10;3.40;;;18.30;99.90;;;;;;5095968;28;20182;-71
2023/10/10 14:03:47;;;;;;;8.00;3.20;;;18.40;99.90;;;;;;5095997;28;20180;-71
2023/10/10 14:06:21;;;;;;;6.63;2.87;;;18.40;99.90;;;;;;5078152;28;20678;-71
2023/10/10 14:08:52;;;;;;;8.23;3.13;;;18.40;99.90;;;;;;5078229;28;20193;-71
2023/10/10 14:11:22;;;;;;;9.87;3.20;;;18.40;99.90;;;;;;5094607;28;20591;-71
2023/10/10 14:13:51;;;;;;;7.07;2.97;;;18.50;99.90;;;;;;5077602;28;20179;-71
2023/10/10 14:16:22;;;;;;;10.00;3.30;;;18.50;99.90;;;;;;5078040;28;20189;-72
2023/10/10 14:18:50;;;;;;;11.57;3.27;;;18.50;99.90;;;;;;5076437;28;20179;-70
2023/10/10 14:21:27;;;;;;;8.77;3.20;;;18.50;99.90;;;;;;5077557;28;20557;-71
2023/10/10 14:24:08;;;;;;;8.70;2.97;;;18.50;99.90;;;;;;5096334;28;20188;-70
2023/10/10 14:26:43;;;;;;;8.40;3.60;;;18.50;99.90;;;;;;5095342;28;20248;-71
2023/10/10 14:29:15;;;;;;;9.93;2.83;;;18.40;99.90;;;;;;5095301;28;20186;-71
2023/10/10 14:31:44;;;;;;;6.00;2.83;;;18.50;99.90;;;;;;5095547;28;20268;-71
2023/10/10 14:34:38;;;;;;;12.90;2.97;;;18.50;99.90;;;;;;5095062;28;20197;-71
2023/10/10 14:37:01;;;;;;;7.07;2.80;;;18.50;99.90;;;;;;5094017;28;20198;-71
2023/10/10 14:39:31;;;;;;;8.60;2.73;;;18.40;99.90;;;;;;5093843;28;20192;-70
2023/10/10 14:42:03;;;;;;;10.43;3.33;;;18.50;99.90;;;;;;5095237;28;20635;-71
2023/10/10 14:44:40;;;;;;;8.73;3.03;;;18.50;99.90;;;;;;5094943;28;20191;-70
2023/10/10 14:47:10;;;;;;;6.70;3.23;;;18.40;99.90;;;;;;5094772;28;20221;-71
2023/10/10 14:49:38;;;;;;;9.20;3.40;;;18.40;99.90;;;;;;5094726;28;20200;-71
2023/10/10 14:52:06;;;;;;;12.27;3.50;;;18.40;99.90;;;;;;5094911;28;20195;-70
2023/10/10 14:54:40;;;;;;;9.00;3.33;;;18.40;99.90;;;;;;5093804;28;20234;-72
2023/10/10 14:57:21;;;;;;;6.40;3.40;;;18.40;99.90;;;;;;5093857;28;20185;-70
2023/10/10 14:59:55;;;;;;;6.40;2.90;;;18.40;99.90;;;;;;5094098;28;20247;-70
2023/10/10 15:02:27;;;;;;;8.77;3.03;;;18.40;99.90;;;;;;5094441;28;20660;-71
2023/10/10 15:04:58;;;;;;;8.90;3.30;;;18.30;99.90;;;;;;5094678;28;20297;-71
2023/10/10 15:07:27;;;;;;;10.20;3.07;;;18.20;99.90;;;;;;5093526;28;20252;-71
2023/10/10 15:09:57;;;;;;;12.10;3.53;;;18.20;99.90;;;;;;5094293;28;20543;-71
2023/10/10 15:12:26;;;;;;;8.20;3.20;;;18.20;99.90;;;;;;5093480;28;20187;-71
2023/10/10 15:14:57;;;;;;;12.47;3.77;;;18.20;99.90;;;;;;5093385;28;20572;-71
2023/10/10 15:17:26;;;;;;;7.87;3.10;;;18.10;99.90;;;;;;5094220;28;20195;-70
2023/10/10 15:19:56;;;;;;;5.77;2.63;;;18.10;99.90;;;;;;5094200;28;20186;-71
2023/10/10 15:22:25;;;;;;;9.33;3.40;;;18.10;99.90;;;;;;5076858;28;20183;-70
2023/10/10 15:24:55;;;;;;;9.50;3.13;;;18.00;99.90;;;;;;5094144;28;20214;-71
2023/10/10 15:27:26;;;;;;;5.63;3.20;;;17.90;99.90;;;;;;5094313;28;20310;-71
2023/10/10 15:29:53;;;;;;;7.57;3.40;;;17.70;99.90;;;;;;5093799;28;20216;-71
2023/10/10 15:32:20;;;;;;;7.43;2.50;;;17.60;99.90;;;;;;5094102;28;20182;-71
2023/10/10 15:34:49;;;;;;;10.80;3.60;;;17.50;99.90;;;;;;5092824;28;20271;-71
2023/10/10 15:37:19;;;;;;;8.27;3.30;;;17.40;99.90;;;;;;5093937;28;20182;-71
2023/10/10 15:39:47;;;;;;;8.50;3.47;;;17.20;99.90;;;;;;5092820;28;20639;-71
2023/10/10 15:42:18;;;;;;;7.40;3.00;;;17.10;99.90;;;;;;5092596;28;20660;-71
2023/10/10 15:44:45;;;;;;;8.60;3.23;;;17.00;99.90;;;;;;5094023;28;20191;-71
2023/10/10 15:47:14;;;;;;;7.60;3.00;;;16.90;99.90;;;;;;5093614;28;20248;-70
2023/10/10 15:49:41;;;;;;;11.80;3.40;;;16.80;99.90;;;;;;5093809;28;20326;-71
2023/10/10 15:52:12;;;;;;;8.23;3.07;;;16.70;99.90;;;;;;5093842;28;20184;-71
2023/10/10 15:54:39;;;;;;;8.17;2.97;;;16.60;99.90;;;;;;5093821;28;20199;-71
2023/10/10 15:57:08;;;;;;;12.30;3.80;;;16.50;99.90;;;;;;5092082;28;20179;-71
2023/10/10 15:59:41;;;;;;;9.60;3.80;;;16.50;99.90;;;;;;5092304;28;20187;-71
2023/10/10 16:02:09;;;;;;;12.00;3.90;;;16.40;99.90;;;;;;5093774;28;20180;-71
2023/10/10 16:04:42;;;;;;;10.53;3.60;;;16.40;99.90;;;;;;5093616;28;20178;-70
2023/10/10 16:07:16;;;;;;;8.93;3.80;;;16.30;99.90;;;;;;5093670;28;20559;-71
2023/10/10 16:09:43;;;;;;;10.73;3.70;;;16.20;99.90;;;;;;5092233;28;20236;-71
2023/10/10 16:12:13;;;;;;;10.83;4.47;;;16.20;99.90;;;;;;5092964;28;20186;-73
2023/10/10 16:14:40;;;;;;;6.47;3.47;;;16.20;99.90;;;;;;5093345;28;20186;-71
2023/10/10 16:17:08;;;;;;;6.80;3.50;;;16.20;99.90;;;;;;5091788;28;20218;-71
2023/10/10 16:19:42;;;;;;;5.73;3.87;;;16.20;99.90;;;;;;5092882;28;20196;-71
2023/10/10 16:22:13;;;;;;;10.77;3.10;;;16.20;99.90;;;;;;5091928;28;20183;-71
2023/10/10 16:24:43;;;;;;;11.17;4.10;;;16.30;99.90;;;;;;5093135;28;20276;-71
2023/10/10 16:27:11;;;;;;;9.53;4.30;;;16.40;99.90;;;;;;5093351;28;20341;-70